createdAt,value
2022-09-01T00:01:54.890Z,101837.53
2022-09-01T00:04:26.931Z,101840.78
2022-09-01T00:06:59.844Z,101842.19
2022-09-01T00:09:26.347Z,101838.31
2022-09-01T00:11:54.983Z,101845.19
2022-09-01T00:14:30.349Z,101842.47
2022-09-01T00:17:05.689Z,101846.28
2022-09-01T00:19:33.400Z,101841.91
2022-09-01T00:22:01.076Z,101843.84
2022-09-01T00:24:28.761Z,101843.28
2022-09-01T00:26:58.045Z,101842.44
2022-09-01T00:29:26.365Z,101837.78
2022-09-01T00:31:53.015Z,101845.44
2022-09-01T00:34:20.402Z,101839.97
2022-09-01T00:36:48.275Z,101847.63
2022-09-01T00:39:15.785Z,101847.91
2022-09-01T00:41:44.526Z,101840.78
2022-09-01T00:44:15.615Z,101838.03
2022-09-01T00:46:49.605Z,101839.16
2022-09-01T00:49:24.707Z,101834.22
2022-09-01T00:51:57.411Z,101831.50
2022-09-01T00:54:28.999Z,101837.25
2022-09-01T00:56:57.759Z,101827.63
2022-09-01T00:59:26.666Z,101830.66
2022-09-01T01:02:19.770Z,101831.75
2022-09-01T01:04:46.617Z,101831.47
2022-09-01T01:07:15.736Z,101834.22
2022-09-01T01:09:45.619Z,101838.03
2022-09-01T01:12:14.441Z,101835.28
2022-09-01T01:14:41.727Z,101830.06
2022-09-01T01:17:12.403Z,101833.88
2022-09-01T01:20:15.855Z,101831.38
2022-09-01T01:23:05.342Z,101832.97
2022-09-01T01:25:49.851Z,101829.66
2022-09-01T01:28:22.517Z,101836.50
2022-09-01T01:30:57.201Z,101842.75
2022-09-01T01:33:28.036Z,101835.91
2022-09-01T01:35:57.427Z,101837.78
2022-09-01T01:38:27.947Z,101838.66
2022-09-01T01:40:56.352Z,101841.91
2022-09-01T01:43:26.310Z,101848.22
2022-09-01T01:45:56.886Z,101840.22
2022-09-01T01:48:30.018Z,101839.72
2022-09-01T01:50:59.554Z,101843.75
2022-09-01T01:53:26.297Z,101840.75
2022-09-01T01:55:53.492Z,101840.50
2022-09-01T01:58:22.532Z,101841.00
2022-09-01T02:00:51.254Z,101844.59
2022-09-01T02:03:26.117Z,101848.13
2022-09-01T02:05:56.278Z,101850.88
2022-09-01T02:08:26.112Z,101845.91
2022-09-01T02:10:56.220Z,101852.94
2022-09-01T02:13:30.971Z,101846.69
2022-09-01T02:16:02.191Z,101852.94
2022-09-01T02:18:36.138Z,101846.06
2022-09-01T02:21:11.213Z,101840.28
2022-09-01T02:23:41.247Z,101838.69
2022-09-01T02:26:18.180Z,101838.13
2022-09-01T02:28:57.171Z,101841.38
2022-09-01T02:31:28.080Z,101837.78
2022-09-01T02:33:56.236Z,101833.59
2022-09-01T02:36:25.214Z,101837.13
2022-09-01T02:38:53.243Z,101836.28
2022-09-01T02:41:23.836Z,101837.97
2022-09-01T02:43:50.990Z,101833.56
2022-09-01T02:46:18.863Z,101839.56
2022-09-01T02:48:46.221Z,101836.28
2022-09-01T02:51:21.176Z,101827.66
2022-09-01T02:53:51.147Z,101824.94
2022-09-01T02:56:20.139Z,101826.06
2022-09-01T02:58:51.803Z,101820.03
2022-09-01T03:01:27.257Z,101820.31
2022-09-01T03:03:58.337Z,101822.50
2022-09-01T03:06:26.497Z,101819.75
2022-09-01T03:08:55.538Z,101824.31
2022-09-01T03:11:24.556Z,101818.31
2022-09-01T03:13:52.147Z,101818.75
2022-09-01T03:16:19.120Z,101821.50
2022-09-01T03:18:45.968Z,101824.78
2022-09-01T03:21:17.342Z,101823.09
2022-09-01T03:23:46.907Z,101817.09
2022-09-01T03:26:18.839Z,101822.59
2022-09-01T03:28:46.890Z,101810.56
2022-09-01T03:31:14.694Z,101814.69
2022-09-01T03:33:42.650Z,101813.34
2022-09-01T03:36:20.214Z,101807.81
2022-09-01T03:38:52.060Z,101812.59
2022-09-01T03:41:24.992Z,101819.59
2022-09-01T03:43:55.224Z,101825.34
2022-09-01T03:46:22.743Z,101816.66
2022-09-01T03:48:51.927Z,101829.25
2022-09-01T03:51:22.551Z,101824.28
2022-09-01T03:53:54.495Z,101820.41
2022-09-01T03:56:24.074Z,101825.84
2022-09-01T03:58:52.046Z,101818.97
2022-09-01T04:01:20.024Z,101817.72
2022-09-01T04:03:48.840Z,101827.00
2022-09-01T04:06:20.914Z,101827.00
2022-09-01T04:08:47.821Z,101827.41
2022-09-01T04:11:18.842Z,101829.66
2022-09-01T04:13:47.467Z,101826.56
2022-09-01T04:16:44.890Z,101821.97
2022-09-01T04:19:21.198Z,101817.16
2022-09-01T04:21:54.272Z,101824.28
2022-09-01T04:24:24.201Z,101821.22
2022-09-01T04:26:53.542Z,101825.34
2022-09-01T04:29:27.198Z,101823.94
2022-09-01T04:31:59.208Z,101830.47
2022-09-01T04:34:26.984Z,101826.09
2022-09-01T04:36:56.777Z,101827.41
2022-09-01T04:39:23.934Z,101827.47
2022-09-01T04:41:50.541Z,101827.16
2022-09-01T04:44:42.842Z,101830.53
2022-09-01T04:47:15.055Z,101820.00
2022-09-01T04:49:41.961Z,101830.63
2022-09-01T04:52:08.428Z,101824.16
2022-09-01T04:54:36.908Z,101829.34
2022-09-01T04:57:06.743Z,101835.69
2022-09-01T04:59:36.475Z,101833.31
2022-09-01T05:02:03.099Z,101833.00
2022-09-01T05:04:33.807Z,101833.56
2022-09-01T05:07:02.370Z,101835.72
2022-09-01T05:09:36.323Z,101838.91
2022-09-01T05:12:12.896Z,101841.63
2022-09-01T05:14:50.209Z,101840.38
2022-09-01T05:17:18.727Z,101837.94
2022-09-01T05:19:48.518Z,101840.38
2022-09-01T05:22:16.279Z,101827.81
2022-09-01T05:24:51.431Z,101832.03
2022-09-01T05:27:22.811Z,101825.38
2022-09-01T05:29:50.344Z,101829.78
2022-09-01T05:32:17.517Z,101829.25
2022-09-01T05:34:46.100Z,101831.25
2022-09-01T05:37:16.020Z,101837.75
2022-09-01T05:39:42.493Z,101839.63
2022-09-01T05:42:09.812Z,101843.13
2022-09-01T05:44:44.765Z,101845.66
2022-09-01T05:47:20.805Z,101848.50
2022-09-01T05:49:50.248Z,101848.00
2022-09-01T05:52:17.077Z,101847.41
2022-09-01T05:54:48.018Z,101844.44
2022-09-01T05:57:33.944Z,101847.44
2022-09-01T06:00:10.925Z,101853.69
2022-09-01T06:02:40.704Z,101847.16
2022-09-01T06:05:08.886Z,101845.88
2022-09-01T06:07:39.717Z,101847.31
2022-09-01T06:10:07.507Z,101840.97
2022-09-01T06:12:34.370Z,101847.59
2022-09-01T06:15:01.275Z,101835.53
2022-09-01T06:17:28.906Z,101839.03
2022-09-01T06:19:59.251Z,101830.97
2022-09-01T06:22:28.534Z,101837.56
2022-09-01T06:25:01.837Z,101840.00
2022-09-01T06:27:33.318Z,101844.94
2022-09-01T06:29:59.987Z,101844.72
2022-09-01T06:32:27.049Z,101840.38
2022-09-01T06:34:57.931Z,101840.47
2022-09-01T06:37:25.641Z,101842.69
2022-09-01T06:39:55.430Z,101841.31
2022-09-01T06:42:23.716Z,101847.66
2022-09-01T06:44:56.302Z,101852.63
2022-09-01T06:47:22.884Z,101848.31
2022-09-01T06:49:51.813Z,101856.50
2022-09-01T06:52:23.567Z,101851.63
2022-09-01T06:54:54.213Z,101855.81
2022-09-01T07:00:19.167Z,101860.75
2022-09-01T07:02:53.370Z,101863.25
2022-09-01T07:06:01.359Z,101856.13
2022-09-01T07:14:26.675Z,101871.72
2022-09-01T07:17:22.384Z,101869.53
2022-09-01T07:19:55.110Z,101875.28
2022-09-01T07:23:03.533Z,101873.66
2022-09-01T07:28:08.610Z,101868.69
2022-09-01T07:30:41.317Z,101876.03
2022-09-01T07:42:58.961Z,101869.25
2022-09-01T07:44:54.425Z,101869.78
2022-09-01T07:47:54.156Z,101864.53
2022-09-01T07:51:34.393Z,101863.59
2022-09-01T07:53:12.632Z,101870.91
2022-09-01T07:55:44.309Z,101868.59
2022-09-01T07:58:13.149Z,101878.13
2022-09-01T08:00:47.326Z,101872.91
2022-09-01T08:03:18.905Z,101872.34
2022-09-01T08:05:47.440Z,101871.69
2022-09-01T08:08:27.795Z,101871.31
2022-09-01T08:11:04.417Z,101878.56
2022-09-01T08:13:32.925Z,101866.09
2022-09-01T08:16:07.436Z,101871.25
2022-09-01T08:18:51.059Z,101873.59
2022-09-01T08:21:45.059Z,101877.84
2022-09-01T08:24:22.971Z,101872.56
2022-09-01T08:26:49.891Z,101873.53
2022-09-01T08:29:16.529Z,101874.66
2022-09-01T08:31:43.361Z,101868.72
2022-09-01T08:34:12.792Z,101870.31
2022-09-01T08:36:39.376Z,101871.94
2022-09-01T08:39:06.880Z,101870.09
2022-09-01T08:41:51.294Z,101880.22
2022-09-01T08:44:33.505Z,101878.34
2022-09-01T08:47:07.323Z,101875.66
2022-09-01T08:49:45.428Z,101869.78
2022-09-01T08:53:09.122Z,101871.69
2022-09-01T08:55:43.992Z,101870.97
2022-09-01T08:58:16.633Z,101877.03
2022-09-01T09:01:12.096Z,101874.44
2022-09-01T09:03:47.158Z,101879.44
2022-09-01T09:06:29.717Z,101868.00
2022-09-01T09:09:05.945Z,101870.16
2022-09-01T09:12:19.813Z,101874.44
2022-09-01T09:15:05.519Z,101869.22
2022-09-01T09:17:41.549Z,101864.59
2022-09-01T09:20:09.275Z,101865.00
2022-09-01T09:22:35.923Z,101865.66
2022-09-01T09:25:21.530Z,101863.88
2022-09-01T09:28:00.116Z,101865.50
2022-09-01T09:30:29.922Z,101859.34
2022-09-01T09:35:51.710Z,101865.16
2022-09-01T09:38:32.822Z,101865.00
2022-09-01T09:41:17.297Z,101854.53
2022-09-01T09:43:48.156Z,101854.94
2022-09-01T09:46:32.591Z,101855.78
2022-09-01T09:49:36.178Z,101856.47
2022-09-01T09:52:09.781Z,101864.94
2022-09-01T09:54:39.408Z,101857.47
2022-09-01T09:57:08.566Z,101855.25
2022-09-01T10:02:44.077Z,101845.38
2022-09-01T10:05:45.119Z,101839.56
2022-09-01T10:08:38.134Z,101825.09
2022-09-01T10:11:35.607Z,101826.25
2022-09-01T10:14:48.006Z,101826.41
2022-09-01T10:17:13.289Z,101820.84
2022-09-01T10:19:55.647Z,101820.22
2022-09-01T10:22:23.823Z,101827.22
2022-09-01T10:24:51.256Z,101823.97
2022-09-01T10:27:25.710Z,101821.00
2022-09-01T10:30:14.153Z,101820.31
2022-09-01T10:32:55.600Z,101817.56
2022-09-01T10:35:30.339Z,101815.75
2022-09-01T10:37:59.571Z,101808.03
2022-09-01T10:40:31.129Z,101807.78
2022-09-01T10:43:21.913Z,101814.78
2022-09-01T10:45:53.436Z,101805.81
2022-09-01T10:48:31.098Z,101806.28
2022-09-01T10:51:35.388Z,101801.97
2022-09-01T10:54:05.499Z,101798.63
2022-09-01T10:56:44.544Z,101797.78
2022-09-01T10:59:35.592Z,101783.78
2022-09-01T11:02:26.705Z,101791.88
2022-09-01T11:04:54.936Z,101788.34
2022-09-01T11:07:50.293Z,101771.38
2022-09-01T11:10:34.454Z,101784.78
2022-09-01T11:13:19.758Z,101777.06
2022-09-01T11:15:46.769Z,101781.88
2022-09-01T11:18:29.383Z,101778.31
2022-09-01T11:21:13.884Z,101778.91
2022-09-01T11:23:41.551Z,101783.25
2022-09-01T11:26:49.045Z,101790.38
2022-09-01T11:29:51.385Z,101785.81
2022-09-01T11:32:25.266Z,101786.47
2022-09-01T11:34:55.525Z,101769.69
2022-09-01T11:37:27.478Z,101773.53
2022-09-01T11:40:02.237Z,101778.81
2022-09-01T11:42:36.963Z,101776.44
2022-09-01T11:45:22.257Z,101766.59
2022-09-01T11:47:58.449Z,101765.88
2022-09-01T11:50:37.142Z,101762.72
2022-09-01T11:53:21.742Z,101768.66
2022-09-01T11:55:52.321Z,101770.19
2022-09-01T11:58:28.024Z,101763.00
2022-09-01T12:01:12.106Z,101763.25
2022-09-01T12:03:39.048Z,101763.16
2022-09-01T12:06:09.450Z,101754.38
2022-09-01T12:08:40.114Z,101754.38
2022-09-01T12:11:10.420Z,101758.31
2022-09-01T12:13:38.262Z,101761.00
2022-09-01T12:16:17.966Z,101752.19
2022-09-01T12:18:51.714Z,101751.06
2022-09-01T12:21:32.068Z,101763.78
2022-09-01T12:24:19.548Z,101746.88
2022-09-01T12:26:49.328Z,101749.44
2022-09-01T12:29:17.151Z,101755.94
2022-09-01T12:31:46.591Z,101753.41
2022-09-01T12:34:26.986Z,101754.09
2022-09-01T12:37:21.811Z,101740.63
2022-09-01T12:39:52.190Z,101749.19
2022-09-01T12:42:19.189Z,101734.88
2022-09-01T12:44:52.191Z,101727.09
2022-09-01T12:47:50.343Z,101734.97
2022-09-01T12:50:17.461Z,101728.53
2022-09-01T12:52:52.409Z,101738.03
2022-09-01T12:58:21.696Z,101717.38
2022-09-01T13:01:25.829Z,101720.19
2022-09-01T13:04:27.070Z,101736.13
2022-09-01T13:07:03.323Z,101724.16
2022-09-01T13:09:30.078Z,101719.47
2022-09-01T13:12:16.445Z,101717.16
2022-09-01T13:14:43.022Z,101719.50
2022-09-01T13:17:13.903Z,101719.63
2022-09-01T13:19:41.618Z,101714.63
2022-09-01T13:22:08.338Z,101703.56
2022-09-01T13:24:34.958Z,101705.75
2022-09-01T13:27:21.113Z,101711.06
2022-09-01T13:29:48.769Z,101697.50
2022-09-01T13:32:19.304Z,101702.03
2022-09-01T13:34:48.544Z,101704.81
2022-09-01T13:37:17.592Z,101699.38
2022-09-01T13:39:45.684Z,101693.66
2022-09-01T13:42:13.861Z,101695.72
2022-09-01T13:44:40.487Z,101687.59
2022-09-01T13:50:11.392Z,101690.09
2022-09-01T13:52:41.078Z,101685.38
2022-09-01T13:55:10.327Z,101688.31
2022-09-01T13:57:37.088Z,101683.50
2022-09-01T14:00:10.921Z,101679.72
2022-09-01T14:02:42.917Z,101684.75
2022-09-01T14:05:10.288Z,101684.44
2022-09-01T14:07:37.413Z,101672.38
2022-09-01T14:10:05.023Z,101674.25
2022-09-01T14:12:32.741Z,101669.63
2022-09-01T14:15:17.228Z,101671.25
2022-09-01T14:17:48.465Z,101664.97
2022-09-01T14:20:18.565Z,101662.06
2022-09-01T14:22:46.465Z,101660.97
2022-09-01T14:25:13.917Z,101659.03
2022-09-01T14:27:41.007Z,101664.75
2022-09-01T14:30:10.331Z,101653.25
2022-09-01T14:32:36.733Z,101657.84
2022-09-01T14:35:04.189Z,101650.91
2022-09-01T14:37:30.786Z,101652.22
2022-09-01T14:39:57.750Z,101655.69
2022-09-01T14:42:28.711Z,101655.59
2022-09-01T14:44:56.614Z,101636.63
2022-09-01T14:47:25.512Z,101638.59
2022-09-01T14:49:53.487Z,101634.41
2022-09-01T14:52:21.226Z,101638.81
2022-09-01T14:54:48.391Z,101636.16
2022-09-01T14:57:37.790Z,101632.69
2022-09-01T15:00:02.213Z,101625.72
2022-09-01T15:02:29.140Z,101627.34
2022-09-01T15:04:56.820Z,101621.44
2022-09-01T15:07:23.480Z,101617.03
2022-09-01T15:09:50.166Z,101621.69
2022-09-01T15:12:16.989Z,101614.34
2022-09-01T15:14:43.573Z,101618.78
2022-09-01T15:17:35.417Z,101619.84
2022-09-01T15:20:21.782Z,101622.84
2022-09-01T15:22:49.655Z,101617.47
2022-09-01T15:25:17.580Z,101622.69
2022-09-01T15:27:44.174Z,101616.94
2022-09-01T15:30:16.788Z,101615.50
2022-09-01T15:32:46.616Z,101609.28
2022-09-01T15:35:14.280Z,101609.22
2022-09-01T15:37:41.547Z,101600.94
2022-09-01T15:40:09.110Z,101604.03
2022-09-01T15:42:36.813Z,101611.66
2022-09-01T15:45:06.742Z,101607.31
2022-09-01T15:47:33.232Z,101605.63
2022-09-01T15:49:59.954Z,101607.59
2022-09-01T15:52:29.787Z,101618.38
2022-09-01T15:54:56.719Z,101608.03
2022-09-01T15:57:23.247Z,101609.22
2022-09-01T15:59:49.842Z,101611.28
2022-09-01T16:02:17.876Z,101602.94
2022-09-01T16:04:44.622Z,101595.91
2022-09-01T16:07:11.082Z,101588.44
2022-09-01T16:09:37.659Z,101594.59
2022-09-01T16:12:04.568Z,101592.69
2022-09-01T16:14:31.050Z,101585.13
2022-09-01T16:17:16.638Z,101581.28
2022-09-01T16:19:49.523Z,101583.66
2022-09-01T16:22:29.944Z,101584.63
2022-09-01T16:25:00.793Z,101582.75
2022-09-01T16:27:33.148Z,101588.59
2022-09-01T16:30:10.034Z,101586.22
2022-09-01T16:32:39.330Z,101582.03
2022-09-01T16:35:06.890Z,101586.94
2022-09-01T16:38:01.560Z,101572.41
2022-09-01T16:40:52.241Z,101573.16
2022-09-01T16:43:52.443Z,101568.69
2022-09-01T16:46:35.298Z,101573.97
2022-09-01T16:49:07.451Z,101568.91
2022-09-01T16:52:03.777Z,101562.84
2022-09-01T16:54:56.738Z,101566.88
2022-09-01T16:57:29.084Z,101565.94
2022-09-01T17:00:00.183Z,101563.50
2022-09-01T17:02:42.526Z,101576.22
2022-09-01T17:05:26.137Z,101568.25
2022-09-01T17:08:06.817Z,101566.06
2022-09-01T17:11:21.923Z,101575.38
2022-09-01T17:13:53.903Z,101572.78
2022-09-01T17:16:38.588Z,101568.75
2022-09-01T17:19:18.013Z,101566.13
2022-09-01T17:21:52.679Z,101572.50
2022-09-01T17:24:42.610Z,101574.19
2022-09-01T17:27:20.727Z,101570.63
2022-09-01T17:29:54.785Z,101571.81
2022-09-01T17:33:04.969Z,101572.13
2022-09-01T17:35:42.373Z,101568.56
2022-09-01T17:38:19.476Z,101581.13
2022-09-01T17:41:00.179Z,101573.81
2022-09-01T17:43:59.650Z,101578.88
2022-09-01T17:46:49.549Z,101579.03
2022-09-01T17:49:38.289Z,101578.41
2022-09-01T17:52:39.883Z,101584.13
2022-09-01T17:55:15.794Z,101575.50
2022-09-01T17:58:04.775Z,101582.31
2022-09-01T18:00:40.022Z,101587.06
2022-09-01T18:03:49.284Z,101583.59
2022-09-01T18:06:36.520Z,101581.63
2022-09-01T18:09:03.949Z,101583.69
2022-09-01T18:11:42.652Z,101586.34
2022-09-01T18:14:15.809Z,101592.75
2022-09-01T18:16:57.256Z,101587.53
2022-09-01T18:19:32.142Z,101591.59
2022-09-01T18:22:03.632Z,101592.69
2022-09-01T18:25:07.652Z,101588.28
2022-09-01T18:27:35.413Z,101595.78
2022-09-01T18:30:05.594Z,101606.94
2022-09-01T18:32:42.098Z,101605.28
2022-09-01T18:35:33.022Z,101611.59
2022-09-01T18:38:13.881Z,101609.66
2022-09-01T18:41:08.728Z,101613.28
2022-09-01T18:43:37.588Z,101611.97
2022-09-01T18:46:28.340Z,101617.66
2022-09-01T18:49:08.454Z,101614.41
2022-09-01T18:51:55.945Z,101611.22
2022-09-01T18:54:32.148Z,101611.13
2022-09-01T18:57:07.758Z,101613.41
2022-09-01T18:59:44.658Z,101611.91
2022-09-01T19:02:14.575Z,101610.50
2022-09-01T19:04:44.386Z,101611.53
2022-09-01T19:07:13.737Z,101607.56
2022-09-01T19:10:30.104Z,101606.13
2022-09-01T19:13:03.454Z,101612.69
2022-09-01T19:15:37.270Z,101607.59
2022-09-01T19:18:11.722Z,101609.75
2022-09-01T19:20:44.567Z,101619.31
2022-09-01T19:23:18.895Z,101613.91
2022-09-01T19:25:45.764Z,101609.53
2022-09-01T19:28:21.159Z,101612.72
2022-09-01T19:31:06.714Z,101619.16
2022-09-01T19:33:44.895Z,101622.91
2022-09-01T19:36:18.906Z,101620.00
2022-09-01T19:38:45.742Z,101624.75
2022-09-01T19:41:23.466Z,101623.94
2022-09-01T19:44:05.258Z,101621.50
2022-09-01T19:46:42.138Z,101628.53
2022-09-01T19:49:29.875Z,101623.47
2022-09-01T19:52:06.346Z,101623.38
2022-09-01T19:54:44.689Z,101625.66
2022-09-01T19:57:21.242Z,101624.44
2022-09-01T20:00:06.872Z,101624.16
2022-09-01T20:03:01.116Z,101627.59
2022-09-01T20:05:34.490Z,101622.97
2022-09-01T20:08:37.858Z,101634.16
2022-09-01T20:11:22.654Z,101637.41
2022-09-01T20:14:39.711Z,101632.75
2022-09-01T20:17:10.293Z,101631.28
2022-09-01T20:19:49.619Z,101637.31
2022-09-01T20:22:40.532Z,101640.44
2022-09-01T20:25:18.628Z,101632.31
2022-09-01T20:28:23.404Z,101636.25
2022-09-01T20:30:56.931Z,101636.84
2022-09-01T20:33:37.061Z,101636.75
2022-09-01T20:36:10.630Z,101640.97
2022-09-01T20:39:13.720Z,101635.19
2022-09-01T20:41:49.154Z,101637.34
2022-09-01T20:44:29.098Z,101634.38
2022-09-01T20:46:55.802Z,101643.47
2022-09-01T20:49:22.430Z,101639.38
2022-09-01T20:52:06.971Z,101634.91
2022-09-01T20:54:46.951Z,101639.00
2022-09-01T20:57:34.624Z,101636.03
2022-09-01T21:00:08.753Z,101646.50
2022-09-01T21:02:53.186Z,101643.78
2022-09-01T21:05:29.059Z,101647.50
2022-09-01T21:08:08.377Z,101636.44
2022-09-01T21:10:46.178Z,101642.06
2022-09-01T21:13:45.973Z,101632.97
2022-09-01T21:16:41.452Z,101642.34
2022-09-01T21:19:25.451Z,101637.09
2022-09-01T21:22:11.623Z,101637.78
2022-09-01T21:24:41.914Z,101637.66
2022-09-01T21:27:26.643Z,101628.72
2022-09-01T21:30:04.096Z,101634.81
2022-09-01T21:32:33.601Z,101641.78
2022-09-01T21:35:00.790Z,101633.56
2022-09-01T21:37:29.427Z,101638.13
2022-09-01T21:39:56.641Z,101635.66
2022-09-01T21:42:31.665Z,101632.88
2022-09-01T21:44:59.613Z,101638.34
2022-09-01T21:47:26.809Z,101631.03
2022-09-01T21:49:53.997Z,101637.28
2022-09-01T21:52:20.637Z,101638.50
2022-09-01T21:54:47.446Z,101644.59
2022-09-01T21:57:14.618Z,101647.66
2022-09-01T21:59:41.114Z,101644.44
2022-09-01T22:02:07.895Z,101645.06
2022-09-01T22:04:37.051Z,101637.72
2022-09-01T22:07:15.202Z,101645.94
2022-09-01T22:09:43.055Z,101646.16
2022-09-01T22:12:10.160Z,101643.66
2022-09-01T22:14:36.862Z,101640.97
2022-09-01T22:17:04.608Z,101641.78
2022-09-01T22:19:35.187Z,101641.22
2022-09-01T22:22:03.091Z,101636.00
2022-09-01T22:24:29.895Z,101633.28
2022-09-01T22:26:56.920Z,101644.56
2022-09-01T22:29:23.542Z,101636.63
2022-09-01T22:31:50.073Z,101632.78
2022-09-01T22:34:17.148Z,101632.56
2022-09-01T22:36:48.295Z,101639.94
2022-09-01T22:39:17.213Z,101641.09
2022-09-01T22:41:43.694Z,101639.94
2022-09-01T22:44:11.043Z,101641.66
2022-09-01T22:46:38.831Z,101644.69
2022-09-01T22:49:06.543Z,101641.91
2022-09-01T22:51:33.445Z,101643.31
2022-09-01T22:54:00.041Z,101634.50
2022-09-01T22:56:29.784Z,101632.84
2022-09-01T22:58:58.391Z,101643.00
2022-09-01T23:01:27.666Z,101638.38
2022-09-01T23:04:02.569Z,101636.09
2022-09-01T23:06:31.829Z,101641.91
2022-09-01T23:09:01.031Z,101644.94
2022-09-01T23:11:28.420Z,101643.59
2022-09-01T23:13:55.181Z,101637.84
2022-09-01T23:16:23.750Z,101636.28
2022-09-01T23:18:51.326Z,101628.88
2022-09-01T23:21:21.671Z,101635.75
2022-09-01T23:23:48.274Z,101640.41
2022-09-01T23:26:22.434Z,101636.31
2022-09-01T23:28:49.782Z,101634.38
2022-09-01T23:31:19.863Z,101628.91
2022-09-01T23:33:47.079Z,101627.28
2022-09-01T23:36:18.358Z,101630.63
2022-09-01T23:38:47.103Z,101618.59
2022-09-01T23:41:23.108Z,101623.66
2022-09-01T23:43:51.464Z,101623.38
2022-09-01T23:46:25.041Z,101622.81
2022-09-01T23:48:52.393Z,101617.97
2022-09-01T23:51:20.008Z,101612.47
2022-09-01T23:53:47.796Z,101616.09
2022-09-01T23:56:18.244Z,101608.72
2022-09-01T23:58:45.231Z,101618.34
